Hlavní strana
METAR-TAF:

METAR-TAF

Letiště :

Bagdád, Irák

zeměpisná šířka: 33-15-45N, zeměpisná délka: 44-14-04E, výška: 35 m

Aktuální stav počasí

Zpráva byla vytvořena před 41 minutami, v 10:00 UTC
Západní vítr 13 kt, proměnlivý mezi západojihozápadním a severozápadním
Teplota 40°C
Vlhkost vzduchu 23%
Tlak 999 hPa
Viditelnost 10 km a více
Žádná oblačnost pod 1500 m, nevyskytují se cumulonimby.

METAR: ORBI 221000Z 28013KT 240V320 CAVOK 40/15 Q0999 NOSIG

Čas: 13:41 (10:41 UTC)

Předpověď počasí

Zpráva byla vytvořena před 6 hodinami a 41 minutami, v 04:00 UTC
Předpověď platná od 22 v 06 UTC do 23 v 06 UTC
Západoseverozápadní vítr 10 kt
Viditelnost: 8000 m

TAF: ORBI 220400Z 2206/2306 30010KT 8000 NSC

Stav a předpovědi počasí z více než 4 000 letišť (zprávy METAR a TAF).

Červené a žluté tečky na mapě představují dostupné meteorologické stanice.

Když kurzor umístíte na tečku, zobrazí se název stanice.

Pak kliknutím zobrazíte stav a předpověď počasí.

Chcete-li změnit mapu, kliknutím na zelené tlačítko se znaménkem +mapu přiblížíte, kliknutím na zelené tlačítko se znaménkem – mapu oddálíte a kliknutím na zelené šipky přejdete na sousední mapy.


METAR-TAF: